San Francisco, California
Traffic Map
Current Weather Conditions
San Francisco, California
Clear
Clear
52°
Feels Like: 52°
Wind Chill: 52° Ceiling: Unl
Heat Index: 52° Visibility: 10mi
Dew Point: 49° Wind: 6mph
Humidity: 89% Direction: 280° (W)
Pressure: 30.12in Gusts: 0mph
Raw Report DataKSFO 201056Z 28005KT 10SM CLR 11/09 A3012 RMK AO2 SLP200 T01110094
Traffic Incident Summary
Active as of:
Severity:
Category:
InformationThere was an issue retrieving the traffic information for this location. Please try a different location or try again shortly.
Advertisements
At Last! Intellicast now available for iPhone and Android